sensor_id;sensor_type;location;lat;lon;timestamp;P1;durP1;ratioP1;P2;durP2;ratioP2
34978;SDS011;21185;50.978;13.720;2023-01-10T00:01:09;1.20;;;0.90;;
34978;SDS011;21185;50.978;13.720;2023-01-10T00:06:11;3.95;;;1.60;;
34978;SDS011;21185;50.978;13.720;2023-01-10T00:11:13;2.00;;;1.02;;
34978;SDS011;21185;50.978;13.720;2023-01-10T00:16:38;1.42;;;1.13;;
34978;SDS011;21185;50.978;13.720;2023-01-10T00:21:52;1.88;;;1.45;;
34978;SDS011;21185;50.978;13.720;2023-01-10T00:27:10;3.15;;;1.10;;
34978;SDS011;21185;50.978;13.720;2023-01-10T00:32:23;0.88;;;0.73;;
34978;SDS011;21185;50.978;13.720;2023-01-10T00:37:25;5.65;;;1.55;;
34978;SDS011;21185;50.978;13.720;2023-01-10T00:42:27;1.83;;;1.23;;
34978;SDS011;21185;50.978;13.720;2023-01-10T00:47:47;2.13;;;1.30;;
34978;SDS011;21185;50.978;13.720;2023-01-10T00:52:49;3.28;;;1.60;;
34978;SDS011;21185;50.978;13.720;2023-01-10T00:57:51;2.50;;;1.45;;
34978;SDS011;21185;50.978;13.720;2023-01-10T01:02:53;2.15;;;1.25;;
34978;SDS011;21185;50.978;13.720;2023-01-10T01:08:10;6.45;;;1.27;;
34978;SDS011;21185;50.978;13.720;2023-01-10T01:13:18;8.93;;;1.65;;
34978;SDS011;21185;50.978;13.720;2023-01-10T01:18:22;1.38;;;1.10;;
34978;SDS011;21185;50.978;13.720;2023-01-10T01:23:24;3.92;;;1.42;;
34978;SDS011;21185;50.978;13.720;2023-01-10T01:28:26;2.33;;;1.40;;
34978;SDS011;21185;50.978;13.720;2023-01-10T01:33:28;3.40;;;1.50;;
34978;SDS011;21185;50.978;13.720;2023-01-10T01:38:30;1.85;;;1.30;;
34978;SDS011;21185;50.978;13.720;2023-01-10T01:43:56;3.67;;;1.77;;
34978;SDS011;21185;50.978;13.720;2023-01-10T01:49:04;3.97;;;1.20;;
34978;SDS011;21185;50.978;13.720;2023-01-10T01:54:18;1.80;;;1.38;;
34978;SDS011;21185;50.978;13.720;2023-01-10T01:59:25;3.95;;;1.13;;
34978;SDS011;21185;50.978;13.720;2023-01-10T02:04:40;3.65;;;1.52;;
34978;SDS011;21185;50.978;13.720;2023-01-10T02:09:50;2.70;;;1.40;;
34978;SDS011;21185;50.978;13.720;2023-01-10T02:14:59;2.08;;;1.88;;
34978;SDS011;21185;50.978;13.720;2023-01-10T02:36:19;3.90;;;1.67;;
34978;SDS011;21185;50.978;13.720;2023-01-10T02:41:29;4.03;;;1.85;;
34978;SDS011;21185;50.978;13.720;2023-01-10T02:46:51;2.63;;;1.52;;
34978;SDS011;21185;50.978;13.720;2023-01-10T02:51:53;7.88;;;1.60;;
34978;SDS011;21185;50.978;13.720;2023-01-10T03:07:33;2.92;;;1.35;;
34978;SDS011;21185;50.978;13.720;2023-01-10T03:12:38;2.83;;;1.98;;
34978;SDS011;21185;50.978;13.720;2023-01-10T03:17:46;4.82;;;1.77;;
34978;SDS011;21185;50.978;13.720;2023-01-10T03:22:52;6.30;;;2.10;;
34978;SDS011;21185;50.978;13.720;2023-01-10T03:28:01;4.47;;;2.10;;
34978;SDS011;21185;50.978;13.720;2023-01-10T03:33:05;5.70;;;1.88;;
34978;SDS011;21185;50.978;13.720;2023-01-10T03:38:42;2.80;;;1.70;;
34978;SDS011;21185;50.978;13.720;2023-01-10T03:43:46;4.65;;;2.35;;
34978;SDS011;21185;50.978;13.720;2023-01-10T03:49:12;6.15;;;2.50;;
34978;SDS011;21185;50.978;13.720;2023-01-10T03:54:16;9.57;;;2.25;;
34978;SDS011;21185;50.978;13.720;2023-01-10T03:59:20;7.03;;;2.17;;
34978;SDS011;21185;50.978;13.720;2023-01-10T04:04:27;4.60;;;2.03;;
34978;SDS011;21185;50.978;13.720;2023-01-10T04:09:29;4.50;;;2.40;;
34978;SDS011;21185;50.978;13.720;2023-01-10T04:14:31;3.10;;;1.88;;
34978;SDS011;21185;50.978;13.720;2023-01-10T04:19:33;11.52;;;2.90;;
34978;SDS011;21185;50.978;13.720;2023-01-10T04:25:00;4.47;;;2.15;;
34978;SDS011;21185;50.978;13.720;2023-01-10T04:30:02;3.88;;;2.38;;
34978;SDS011;21185;50.978;13.720;2023-01-10T04:35:11;4.05;;;1.92;;
34978;SDS011;21185;50.978;13.720;2023-01-10T04:45:17;3.58;;;2.30;;
34978;SDS011;21185;50.978;13.720;2023-01-10T04:50:21;4.78;;;2.55;;
34978;SDS011;21185;50.978;13.720;2023-01-10T04:55:24;6.88;;;3.10;;
34978;SDS011;21185;50.978;13.720;2023-01-10T05:00:26;6.70;;;2.45;;
34978;SDS011;21185;50.978;13.720;2023-01-10T05:05:29;4.82;;;2.40;;
34978;SDS011;21185;50.978;13.720;2023-01-10T05:15:59;9.38;;;3.28;;
34978;SDS011;21185;50.978;13.720;2023-01-10T05:21:02;4.35;;;2.47;;
34978;SDS011;21185;50.978;13.720;2023-01-10T05:26:10;6.63;;;2.72;;
34978;SDS011;21185;50.978;13.720;2023-01-10T05:31:16;10.75;;;2.25;;
34978;SDS011;21185;50.978;13.720;2023-01-10T05:36:20;5.43;;;2.30;;
34978;SDS011;21185;50.978;13.720;2023-01-10T05:41:22;4.22;;;2.33;;
34978;SDS011;21185;50.978;13.720;2023-01-10T05:46:24;6.75;;;2.83;;
34978;SDS011;21185;50.978;13.720;2023-01-10T05:51:27;4.97;;;2.95;;
34978;SDS011;21185;50.978;13.720;2023-01-10T05:56:29;7.40;;;2.65;;
34978;SDS011;21185;50.978;13.720;2023-01-10T06:01:58;5.38;;;2.50;;
34978;SDS011;21185;50.978;13.720;2023-01-10T06:07:00;5.63;;;2.67;;
34978;SDS011;21185;50.978;13.720;2023-01-10T06:12:05;10.00;;;2.45;;
34978;SDS011;21185;50.978;13.720;2023-01-10T06:17:07;5.88;;;1.95;;
34978;SDS011;21185;50.978;13.720;2023-01-10T06:22:10;3.92;;;2.13;;
34978;SDS011;21185;50.978;13.720;2023-01-10T06:27:13;10.05;;;2.60;;
34978;SDS011;21185;50.978;13.720;2023-01-10T06:32:17;4.00;;;2.00;;
34978;SDS011;21185;50.978;13.720;2023-01-10T06:37:19;6.82;;;3.40;;
34978;SDS011;21185;50.978;13.720;2023-01-10T06:42:21;4.63;;;2.13;;
34978;SDS011;21185;50.978;13.720;2023-01-10T06:47:23;6.95;;;2.60;;
34978;SDS011;21185;50.978;13.720;2023-01-10T06:52:29;8.55;;;3.20;;
34978;SDS011;21185;50.978;13.720;2023-01-10T06:57:31;6.50;;;2.83;;
34978;SDS011;21185;50.978;13.720;2023-01-10T07:02:39;5.72;;;2.33;;
34978;SDS011;21185;50.978;13.720;2023-01-10T07:07:53;4.90;;;2.05;;
34978;SDS011;21185;50.978;13.720;2023-01-10T07:12:55;3.85;;;2.40;;
34978;SDS011;21185;50.978;13.720;2023-01-10T07:17:59;7.45;;;2.88;;
34978;SDS011;21185;50.978;13.720;2023-01-10T07:23:13;7.57;;;2.85;;
34978;SDS011;21185;50.978;13.720;2023-01-10T07:28:24;3.30;;;1.95;;
34978;SDS011;21185;50.978;13.720;2023-01-10T07:33:26;8.40;;;2.20;;
34978;SDS011;21185;50.978;13.720;2023-01-10T07:38:29;5.75;;;2.92;;
34978;SDS011;21185;50.978;13.720;2023-01-10T07:43:34;3.55;;;2.00;;
34978;SDS011;21185;50.978;13.720;2023-01-10T07:48:37;5.80;;;2.63;;
34978;SDS011;21185;50.978;13.720;2023-01-10T07:53:42;9.10;;;2.72;;
34978;SDS011;21185;50.978;13.720;2023-01-10T07:58:44;4.63;;;2.47;;
34978;SDS011;21185;50.978;13.720;2023-01-10T08:04:00;6.35;;;2.22;;
34978;SDS011;21185;50.978;13.720;2023-01-10T08:09:02;6.30;;;2.63;;
34978;SDS011;21185;50.978;13.720;2023-01-10T08:14:13;4.57;;;2.40;;
34978;SDS011;21185;50.978;13.720;2023-01-10T08:24:23;13.07;;;3.17;;
34978;SDS011;21185;50.978;13.720;2023-01-10T08:29:25;8.45;;;2.70;;
34978;SDS011;21185;50.978;13.720;2023-01-10T08:34:28;3.35;;;2.13;;
34978;SDS011;21185;50.978;13.720;2023-01-10T08:39:30;7.35;;;2.53;;
34978;SDS011;21185;50.978;13.720;2023-01-10T08:44:33;6.15;;;2.80;;
34978;SDS011;21185;50.978;13.720;2023-01-10T08:49:40;3.53;;;2.10;;
34978;SDS011;21185;50.978;13.720;2023-01-10T08:54:42;4.38;;;2.13;;
34978;SDS011;21185;50.978;13.720;2023-01-10T08:59:44;3.33;;;1.73;;
34978;SDS011;21185;50.978;13.720;2023-01-10T09:04:46;6.22;;;2.13;;
34978;SDS011;21185;50.978;13.720;2023-01-10T09:09:48;10.48;;;3.17;;
34978;SDS011;21185;50.978;13.720;2023-01-10T09:14:50;3.83;;;1.85;;
34978;SDS011;21185;50.978;13.720;2023-01-10T09:19:52;3.50;;;1.38;;
34978;SDS011;21185;50.978;13.720;2023-01-10T09:24:54;2.65;;;1.40;;
34978;SDS011;21185;50.978;13.720;2023-01-10T09:29:56;3.20;;;1.95;;
34978;SDS011;21185;50.978;13.720;2023-01-10T09:52:24;8.07;;;3.65;;
34978;SDS011;21185;50.978;13.720;2023-01-10T09:57:31;1.95;;;1.40;;
34978;SDS011;21185;50.978;13.720;2023-01-10T10:02:38;3.47;;;2.05;;
34978;SDS011;21185;50.978;13.720;2023-01-10T10:07:43;2.22;;;1.58;;
34978;SDS011;21185;50.978;13.720;2023-01-10T10:13:06;2.72;;;1.77;;
34978;SDS011;21185;50.978;13.720;2023-01-10T10:18:20;6.53;;;1.77;;
34978;SDS011;21185;50.978;13.720;2023-01-10T10:29:15;5.80;;;2.28;;
34978;SDS011;21185;50.978;13.720;2023-01-10T10:34:47;10.95;;;1.65;;
34978;SDS011;21185;50.978;13.720;2023-01-10T10:39:55;4.00;;;1.40;;
34978;SDS011;21185;50.978;13.720;2023-01-10T10:56:05;4.40;;;1.15;;
34978;SDS011;21185;50.978;13.720;2023-01-10T11:01:14;3.60;;;1.43;;
34978;SDS011;21185;50.978;13.720;2023-01-10T11:06:17;2.38;;;1.08;;
34978;SDS011;21185;50.978;13.720;2023-01-10T11:11:22;3.30;;;1.50;;
34978;SDS011;21185;50.978;13.720;2023-01-10T11:16:45;2.33;;;1.42;;
34978;SDS011;21185;50.978;13.720;2023-01-10T11:27:13;8.80;;;2.20;;
34978;SDS011;21185;50.978;13.720;2023-01-10T11:32:19;6.43;;;1.98;;
34978;SDS011;21185;50.978;13.720;2023-01-10T11:37:34;2.35;;;1.65;;
34978;SDS011;21185;50.978;13.720;2023-01-10T11:42:37;4.32;;;1.67;;
34978;SDS011;21185;50.978;13.720;2023-01-10T11:47:39;5.95;;;1.92;;
34978;SDS011;21185;50.978;13.720;2023-01-10T11:52:46;3.43;;;1.73;;
34978;SDS011;21185;50.978;13.720;2023-01-10T11:57:53;6.40;;;1.92;;
34978;SDS011;21185;50.978;13.720;2023-01-10T12:03:23;9.10;;;1.77;;
34978;SDS011;21185;50.978;13.720;2023-01-10T12:08:38;4.97;;;1.70;;
34978;SDS011;21185;50.978;13.720;2023-01-10T12:13:46;7.65;;;1.25;;
34978;SDS011;21185;50.978;13.720;2023-01-10T12:18:56;5.45;;;1.33;;
34978;SDS011;21185;50.978;13.720;2023-01-10T12:24:02;3.67;;;1.67;;
34978;SDS011;21185;50.978;13.720;2023-01-10T12:29:11;3.05;;;1.23;;
34978;SDS011;21185;50.978;13.720;2023-01-10T12:34:19;3.27;;;1.20;;
34978;SDS011;21185;50.978;13.720;2023-01-10T12:39:36;4.72;;;1.45;;
34978;SDS011;21185;50.978;13.720;2023-01-10T12:44:45;11.85;;;1.35;;
34978;SDS011;21185;50.978;13.720;2023-01-10T12:50:11;10.55;;;1.75;;
34978;SDS011;21185;50.978;13.720;2023-01-10T12:55:17;1.40;;;1.20;;
34978;SDS011;21185;50.978;13.720;2023-01-10T13:00:29;12.53;;;2.33;;
34978;SDS011;21185;50.978;13.720;2023-01-10T13:05:48;8.90;;;1.58;;
34978;SDS011;21185;50.978;13.720;2023-01-10T13:10:54;5.60;;;1.70;;
34978;SDS011;21185;50.978;13.720;2023-01-10T13:21:03;6.55;;;2.42;;
34978;SDS011;21185;50.978;13.720;2023-01-10T13:26:09;7.68;;;1.23;;
34978;SDS011;21185;50.978;13.720;2023-01-10T13:31:21;6.05;;;1.55;;
34978;SDS011;21185;50.978;13.720;2023-01-10T13:36:36;8.52;;;1.65;;
34978;SDS011;21185;50.978;13.720;2023-01-10T13:52:41;3.83;;;1.30;;
34978;SDS011;21185;50.978;13.720;2023-01-10T13:57:50;2.95;;;1.20;;
34978;SDS011;21185;50.978;13.720;2023-01-10T14:02:56;1.80;;;1.15;;
34978;SDS011;21185;50.978;13.720;2023-01-10T14:13:34;2.80;;;0.85;;
34978;SDS011;21185;50.978;13.720;2023-01-10T14:19:23;4.43;;;1.10;;
34978;SDS011;21185;50.978;13.720;2023-01-10T14:24:39;4.70;;;1.45;;
34978;SDS011;21185;50.978;13.720;2023-01-10T14:29:45;3.97;;;1.45;;
34978;SDS011;21185;50.978;13.720;2023-01-10T14:35:02;2.97;;;1.08;;
34978;SDS011;21185;50.978;13.720;2023-01-10T14:40:14;5.13;;;1.08;;
34978;SDS011;21185;50.978;13.720;2023-01-10T14:45:48;8.60;;;1.40;;
34978;SDS011;21185;50.978;13.720;2023-01-10T14:56:16;2.90;;;1.50;;
34978;SDS011;21185;50.978;13.720;2023-01-10T15:01:39;3.28;;;1.23;;
34978;SDS011;21185;50.978;13.720;2023-01-10T15:11:53;3.83;;;1.10;;
34978;SDS011;21185;50.978;13.720;2023-01-10T15:17:00;4.93;;;1.30;;
34978;SDS011;21185;50.978;13.720;2023-01-10T15:22:26;3.60;;;1.10;;
34978;SDS011;21185;50.978;13.720;2023-01-10T15:27:47;6.13;;;1.38;;
34978;SDS011;21185;50.978;13.720;2023-01-10T15:32:51;9.40;;;1.60;;
34978;SDS011;21185;50.978;13.720;2023-01-10T15:37:56;4.25;;;1.75;;
34978;SDS011;21185;50.978;13.720;2023-01-10T15:48:36;3.95;;;2.03;;
34978;SDS011;21185;50.978;13.720;2023-01-10T16:04:33;4.78;;;2.17;;
34978;SDS011;21185;50.978;13.720;2023-01-10T16:09:36;6.45;;;2.75;;
34978;SDS011;21185;50.978;13.720;2023-01-10T16:14:40;5.13;;;2.45;;
34978;SDS011;21185;50.978;13.720;2023-01-10T16:19:42;5.93;;;2.55;;
34978;SDS011;21185;50.978;13.720;2023-01-10T16:24:44;4.88;;;2.00;;
34978;SDS011;21185;50.978;13.720;2023-01-10T16:29:47;5.82;;;1.80;;
34978;SDS011;21185;50.978;13.720;2023-01-10T16:34:49;2.88;;;1.55;;
34978;SDS011;21185;50.978;13.720;2023-01-10T16:39:51;3.33;;;1.30;;
34978;SDS011;21185;50.978;13.720;2023-01-10T16:44:53;5.25;;;1.92;;
34978;SDS011;21185;50.978;13.720;2023-01-10T16:50:45;3.55;;;2.47;;
34978;SDS011;21185;50.978;13.720;2023-01-10T16:55:51;4.38;;;1.92;;
34978;SDS011;21185;50.978;13.720;2023-01-10T17:00:57;15.25;;;3.05;;
34978;SDS011;21185;50.978;13.720;2023-01-10T17:05:59;14.60;;;3.13;;
34978;SDS011;21185;50.978;13.720;2023-01-10T17:11:02;4.05;;;2.10;;
34978;SDS011;21185;50.978;13.720;2023-01-10T17:21:38;7.57;;;1.98;;
34978;SDS011;21185;50.978;13.720;2023-01-10T17:26:40;6.03;;;2.83;;
34978;SDS011;21185;50.978;13.720;2023-01-10T17:31:47;6.07;;;3.08;;
34978;SDS011;21185;50.978;13.720;2023-01-10T17:36:49;5.80;;;2.85;;
34978;SDS011;21185;50.978;13.720;2023-01-10T17:41:51;7.28;;;2.95;;
34978;SDS011;21185;50.978;13.720;2023-01-10T17:46:53;4.28;;;2.42;;
34978;SDS011;21185;50.978;13.720;2023-01-10T17:51:57;3.85;;;1.90;;
34978;SDS011;21185;50.978;13.720;2023-01-10T17:57:00;3.92;;;1.35;;
34978;SDS011;21185;50.978;13.720;2023-01-10T18:02:03;3.63;;;2.00;;
34978;SDS011;21185;50.978;13.720;2023-01-10T18:07:06;4.85;;;2.42;;
34978;SDS011;21185;50.978;13.720;2023-01-10T18:12:08;6.07;;;2.47;;
34978;SDS011;21185;50.978;13.720;2023-01-10T18:17:10;5.57;;;1.88;;
34978;SDS011;21185;50.978;13.720;2023-01-10T18:22:14;4.80;;;2.33;;
34978;SDS011;21185;50.978;13.720;2023-01-10T18:27:34;5.07;;;2.03;;
34978;SDS011;21185;50.978;13.720;2023-01-10T18:32:37;3.60;;;1.65;;
34978;SDS011;21185;50.978;13.720;2023-01-10T18:37:38;4.35;;;1.65;;
34978;SDS011;21185;50.978;13.720;2023-01-10T18:42:40;3.40;;;1.50;;
34978;SDS011;21185;50.978;13.720;2023-01-10T18:47:43;6.32;;;1.55;;
34978;SDS011;21185;50.978;13.720;2023-01-10T18:52:45;8.77;;;2.33;;
34978;SDS011;21185;50.978;13.720;2023-01-10T18:57:48;5.03;;;1.77;;
34978;SDS011;21185;50.978;13.720;2023-01-10T19:02:50;2.85;;;1.40;;
34978;SDS011;21185;50.978;13.720;2023-01-10T19:07:54;2.95;;;2.00;;
34978;SDS011;21185;50.978;13.720;2023-01-10T19:12:56;4.35;;;2.05;;
34978;SDS011;21185;50.978;13.720;2023-01-10T19:17:58;4.70;;;2.05;;
34978;SDS011;21185;50.978;13.720;2023-01-10T19:23:00;5.68;;;2.30;;
34978;SDS011;21185;50.978;13.720;2023-01-10T19:28:02;9.80;;;5.07;;
34978;SDS011;21185;50.978;13.720;2023-01-10T19:33:09;4.45;;;2.75;;
34978;SDS011;21185;50.978;13.720;2023-01-10T19:38:39;4.78;;;2.00;;
34978;SDS011;21185;50.978;13.720;2023-01-10T19:49:29;4.88;;;2.25;;
34978;SDS011;21185;50.978;13.720;2023-01-10T19:54:36;11.55;;;3.47;;
34978;SDS011;21185;50.978;13.720;2023-01-10T19:59:39;8.00;;;2.70;;
34978;SDS011;21185;50.978;13.720;2023-01-10T20:04:46;3.95;;;2.28;;
34978;SDS011;21185;50.978;13.720;2023-01-10T20:09:48;4.85;;;2.22;;
34978;SDS011;21185;50.978;13.720;2023-01-10T20:14:50;6.72;;;2.20;;
34978;SDS011;21185;50.978;13.720;2023-01-10T20:19:52;5.68;;;2.80;;
34978;SDS011;21185;50.978;13.720;2023-01-10T20:24:55;11.02;;;3.70;;
34978;SDS011;21185;50.978;13.720;2023-01-10T20:29:58;7.53;;;3.78;;
34978;SDS011;21185;50.978;13.720;2023-01-10T20:35:00;11.98;;;3.20;;
34978;SDS011;21185;50.978;13.720;2023-01-10T20:40:03;9.13;;;3.00;;
34978;SDS011;21185;50.978;13.720;2023-01-10T20:45:05;4.82;;;2.67;;
34978;SDS011;21185;50.978;13.720;2023-01-10T20:50:07;5.53;;;2.33;;
34978;SDS011;21185;50.978;13.720;2023-01-10T20:55:10;7.45;;;2.25;;
34978;SDS011;21185;50.978;13.720;2023-01-10T21:00:12;6.72;;;1.80;;
34978;SDS011;21185;50.978;13.720;2023-01-10T21:05:14;4.82;;;2.35;;
34978;SDS011;21185;50.978;13.720;2023-01-10T21:10:16;4.55;;;2.22;;
34978;SDS011;21185;50.978;13.720;2023-01-10T21:15:18;3.67;;;2.08;;
34978;SDS011;21185;50.978;13.720;2023-01-10T21:20:20;4.97;;;2.00;;
34978;SDS011;21185;50.978;13.720;2023-01-10T21:25:31;4.07;;;2.03;;
34978;SDS011;21185;50.978;13.720;2023-01-10T21:30:55;6.70;;;2.28;;
34978;SDS011;21185;50.978;13.720;2023-01-10T21:35:57;3.08;;;1.48;;
34978;SDS011;21185;50.978;13.720;2023-01-10T21:41:07;3.10;;;1.80;;
34978;SDS011;21185;50.978;13.720;2023-01-10T21:46:11;7.90;;;2.10;;
34978;SDS011;21185;50.978;13.720;2023-01-10T21:51:13;5.10;;;2.20;;
34978;SDS011;21185;50.978;13.720;2023-01-10T21:56:15;6.75;;;2.47;;
34978;SDS011;21185;50.978;13.720;2023-01-10T22:01:17;4.68;;;1.48;;
34978;SDS011;21185;50.978;13.720;2023-01-10T22:06:19;4.50;;;1.77;;
34978;SDS011;21185;50.978;13.720;2023-01-10T22:11:21;1.75;;;1.20;;
34978;SDS011;21185;50.978;13.720;2023-01-10T22:16:23;4.70;;;1.55;;
34978;SDS011;21185;50.978;13.720;2023-01-10T22:21:25;3.47;;;1.25;;
34978;SDS011;21185;50.978;13.720;2023-01-10T22:26:27;1.70;;;1.13;;
34978;SDS011;21185;50.978;13.720;2023-01-10T22:31:29;2.65;;;1.40;;
34978;SDS011;21185;50.978;13.720;2023-01-10T22:36:31;2.92;;;1.38;;
34978;SDS011;21185;50.978;13.720;2023-01-10T22:41:33;5.85;;;1.48;;
34978;SDS011;21185;50.978;13.720;2023-01-10T22:46:36;4.05;;;1.45;;
34978;SDS011;21185;50.978;13.720;2023-01-10T22:51:38;4.93;;;1.17;;
34978;SDS011;21185;50.978;13.720;2023-01-10T22:56:44;2.03;;;1.15;;
34978;SDS011;21185;50.978;13.720;2023-01-10T23:01:47;6.57;;;1.63;;
34978;SDS011;21185;50.978;13.720;2023-01-10T23:06:49;2.20;;;1.50;;
34978;SDS011;21185;50.978;13.720;2023-01-10T23:11:52;2.70;;;1.60;;
34978;SDS011;21185;50.978;13.720;2023-01-10T23:17:03;3.70;;;1.65;;
34978;SDS011;21185;50.978;13.720;2023-01-10T23:22:05;3.20;;;1.40;;
34978;SDS011;21185;50.978;13.720;2023-01-10T23:27:07;4.00;;;1.77;;
34978;SDS011;21185;50.978;13.720;2023-01-10T23:32:09;6.95;;;1.60;;
34978;SDS011;21185;50.978;13.720;2023-01-10T23:37:24;3.10;;;1.88;;
34978;SDS011;21185;50.978;13.720;2023-01-10T23:42:27;4.03;;;2.05;;
34978;SDS011;21185;50.978;13.720;2023-01-10T23:47:30;6.75;;;1.58;;
34978;SDS011;21185;50.978;13.720;2023-01-10T23:52:32;2.22;;;1.48;;
34978;SDS011;21185;50.978;13.720;2023-01-10T23:57:34;2.28;;;1.33;;
